sensor_id;sensor_type;location;lat;lon;timestamp;P1;durP1;ratioP1;P2;durP2;ratioP2
72369;SDS011;60343;-32.030;115.880;2022-10-24T00:01:15;1.10;;;0.60;;
72369;SDS011;60343;-32.030;115.880;2022-10-24T00:03:44;1.88;;;0.70;;
72369;SDS011;60343;-32.030;115.880;2022-10-24T00:06:18;1.77;;;0.60;;
72369;SDS011;60343;-32.030;115.880;2022-10-24T00:08:46;2.42;;;0.65;;
72369;SDS011;60343;-32.030;115.880;2022-10-24T00:11:15;2.22;;;0.50;;
72369;SDS011;60343;-32.030;115.880;2022-10-24T00:13:44;2.33;;;0.50;;
72369;SDS011;60343;-32.030;115.880;2022-10-24T00:16:11;1.58;;;0.45;;
72369;SDS011;60343;-32.030;115.880;2022-10-24T00:18:44;2.95;;;0.43;;
72369;SDS011;60343;-32.030;115.880;2022-10-24T00:21:20;2.10;;;0.40;;
72369;SDS011;60343;-32.030;115.880;2022-10-24T00:23:48;2.10;;;0.22;;
72369;SDS011;60343;-32.030;115.880;2022-10-24T00:26:16;3.13;;;0.50;;
72369;SDS011;60343;-32.030;115.880;2022-10-24T00:28:43;2.28;;;0.50;;
72369;SDS011;60343;-32.030;115.880;2022-10-24T00:31:12;1.58;;;0.40;;
72369;SDS011;60343;-32.030;115.880;2022-10-24T00:33:41;1.90;;;0.40;;
72369;SDS011;60343;-32.030;115.880;2022-10-24T00:36:10;3.78;;;0.40;;
72369;SDS011;60343;-32.030;115.880;2022-10-24T00:38:43;2.75;;;0.40;;
72369;SDS011;60343;-32.030;115.880;2022-10-24T00:41:12;3.90;;;0.50;;
72369;SDS011;60343;-32.030;115.880;2022-10-24T00:43:41;2.95;;;0.50;;
72369;SDS011;60343;-32.030;115.880;2022-10-24T00:46:12;2.72;;;0.50;;
72369;SDS011;60343;-32.030;115.880;2022-10-24T00:48:44;3.40;;;0.55;;
72369;SDS011;60343;-32.030;115.880;2022-10-24T00:51:15;6.32;;;0.70;;
72369;SDS011;60343;-32.030;115.880;2022-10-24T00:53:53;6.00;;;0.80;;
72369;SDS011;60343;-32.030;115.880;2022-10-24T00:56:27;5.35;;;0.60;;
72369;SDS011;60343;-32.030;115.880;2022-10-24T00:58:59;3.83;;;0.63;;
72369;SDS011;60343;-32.030;115.880;2022-10-24T01:01:29;3.03;;;0.40;;
72369;SDS011;60343;-32.030;115.880;2022-10-24T01:03:57;2.42;;;0.30;;
72369;SDS011;60343;-32.030;115.880;2022-10-24T01:06:30;4.13;;;0.52;;
72369;SDS011;60343;-32.030;115.880;2022-10-24T01:09:17;2.60;;;0.30;;
72369;SDS011;60343;-32.030;115.880;2022-10-24T01:11:58;2.72;;;0.32;;
72369;SDS011;60343;-32.030;115.880;2022-10-24T01:14:38;1.77;;;0.40;;
72369;SDS011;60343;-32.030;115.880;2022-10-24T01:17:17;2.30;;;0.50;;
72369;SDS011;60343;-32.030;115.880;2022-10-24T01:22:51;3.03;;;0.60;;
72369;SDS011;60343;-32.030;115.880;2022-10-24T01:25:39;1.90;;;0.40;;
72369;SDS011;60343;-32.030;115.880;2022-10-24T01:28:13;3.40;;;0.50;;
72369;SDS011;60343;-32.030;115.880;2022-10-24T01:30:51;4.35;;;0.77;;
72369;SDS011;60343;-32.030;115.880;2022-10-24T01:33:24;3.50;;;0.60;;
72369;SDS011;60343;-32.030;115.880;2022-10-24T01:35:57;3.40;;;0.52;;
72369;SDS011;60343;-32.030;115.880;2022-10-24T01:38:32;3.22;;;0.45;;
72369;SDS011;60343;-32.030;115.880;2022-10-24T01:41:06;4.28;;;0.60;;
72369;SDS011;60343;-32.030;115.880;2022-10-24T01:43:38;1.92;;;0.50;;
72369;SDS011;60343;-32.030;115.880;2022-10-24T01:46:14;3.88;;;0.40;;
72369;SDS011;60343;-32.030;115.880;2022-10-24T01:48:46;3.42;;;0.45;;
72369;SDS011;60343;-32.030;115.880;2022-10-24T01:51:18;2.25;;;0.40;;
72369;SDS011;60343;-32.030;115.880;2022-10-24T01:53:49;2.75;;;0.38;;
72369;SDS011;60343;-32.030;115.880;2022-10-24T01:56:17;1.27;;;0.40;;
72369;SDS011;60343;-32.030;115.880;2022-10-24T01:58:45;3.13;;;0.40;;
72369;SDS011;60343;-32.030;115.880;2022-10-24T02:01:20;1.00;;;0.15;;
72369;SDS011;60343;-32.030;115.880;2022-10-24T02:03:50;7.75;;;0.70;;
72369;SDS011;60343;-32.030;115.880;2022-10-24T02:06:22;5.85;;;0.30;;
72369;SDS011;60343;-32.030;115.880;2022-10-24T02:08:53;1.48;;;0.30;;
72369;SDS011;60343;-32.030;115.880;2022-10-24T02:11:24;3.10;;;0.40;;
72369;SDS011;60343;-32.030;115.880;2022-10-24T02:13:53;3.22;;;0.43;;
72369;SDS011;60343;-32.030;115.880;2022-10-24T02:16:30;1.23;;;0.30;;
72369;SDS011;60343;-32.030;115.880;2022-10-24T02:18:59;1.33;;;0.20;;
72369;SDS011;60343;-32.030;115.880;2022-10-24T02:21:28;2.55;;;0.35;;
72369;SDS011;60343;-32.030;115.880;2022-10-24T02:24:01;1.67;;;0.22;;
72369;SDS011;60343;-32.030;115.880;2022-10-24T02:26:37;2.08;;;0.30;;
72369;SDS011;60343;-32.030;115.880;2022-10-24T02:29:11;2.75;;;0.40;;
72369;SDS011;60343;-32.030;115.880;2022-10-24T02:31:49;3.45;;;0.30;;
72369;SDS011;60343;-32.030;115.880;2022-10-24T02:34:21;3.58;;;0.50;;
72369;SDS011;60343;-32.030;115.880;2022-10-24T02:36:52;2.25;;;0.52;;
72369;SDS011;60343;-32.030;115.880;2022-10-24T02:39:22;3.13;;;0.22;;
72369;SDS011;60343;-32.030;115.880;2022-10-24T02:41:50;3.60;;;0.30;;
72369;SDS011;60343;-32.030;115.880;2022-10-24T02:44:24;4.10;;;0.60;;
72369;SDS011;60343;-32.030;115.880;2022-10-24T02:46:59;2.30;;;0.40;;
72369;SDS011;60343;-32.030;115.880;2022-10-24T02:49:31;2.45;;;0.47;;
72369;SDS011;60343;-32.030;115.880;2022-10-24T02:51:59;3.33;;;0.40;;
72369;SDS011;60343;-32.030;115.880;2022-10-24T02:54:28;1.85;;;0.30;;
72369;SDS011;60343;-32.030;115.880;2022-10-24T02:56:59;2.55;;;0.40;;
72369;SDS011;60343;-32.030;115.880;2022-10-24T02:59:34;7.35;;;0.55;;
72369;SDS011;60343;-32.030;115.880;2022-10-24T03:02:15;4.55;;;0.73;;
72369;SDS011;60343;-32.030;115.880;2022-10-24T03:04:46;3.95;;;0.57;;
72369;SDS011;60343;-32.030;115.880;2022-10-24T03:07:14;6.68;;;0.85;;
72369;SDS011;60343;-32.030;115.880;2022-10-24T03:09:44;5.43;;;1.00;;
72369;SDS011;60343;-32.030;115.880;2022-10-24T03:12:12;5.28;;;0.68;;
72369;SDS011;60343;-32.030;115.880;2022-10-24T03:14:41;3.97;;;0.77;;
72369;SDS011;60343;-32.030;115.880;2022-10-24T03:17:15;6.97;;;0.90;;
72369;SDS011;60343;-32.030;115.880;2022-10-24T03:19:43;5.60;;;0.85;;
72369;SDS011;60343;-32.030;115.880;2022-10-24T03:22:10;8.77;;;1.25;;
72369;SDS011;60343;-32.030;115.880;2022-10-24T03:24:38;3.45;;;0.50;;
72369;SDS011;60343;-32.030;115.880;2022-10-24T03:27:06;3.78;;;0.50;;
72369;SDS011;60343;-32.030;115.880;2022-10-24T03:29:39;3.03;;;0.50;;
72369;SDS011;60343;-32.030;115.880;2022-10-24T03:32:07;6.20;;;0.90;;
72369;SDS011;60343;-32.030;115.880;2022-10-24T03:34:40;6.38;;;0.65;;
72369;SDS011;60343;-32.030;115.880;2022-10-24T03:37:08;6.45;;;0.73;;
72369;SDS011;60343;-32.030;115.880;2022-10-24T03:39:36;3.97;;;0.50;;
72369;SDS011;60343;-32.030;115.880;2022-10-24T03:42:03;2.97;;;0.50;;
72369;SDS011;60343;-32.030;115.880;2022-10-24T03:44:31;1.27;;;0.30;;
72369;SDS011;60343;-32.030;115.880;2022-10-24T03:46:59;0.75;;;0.25;;
72369;SDS011;60343;-32.030;115.880;2022-10-24T03:49:26;1.48;;;0.20;;
72369;SDS011;60343;-32.030;115.880;2022-10-24T03:52:00;1.58;;;0.30;;
72369;SDS011;60343;-32.030;115.880;2022-10-24T03:54:27;1.35;;;0.10;;
72369;SDS011;60343;-32.030;115.880;2022-10-24T03:57:01;0.80;;;0.15;;
72369;SDS011;60343;-32.030;115.880;2022-10-24T03:59:28;1.48;;;0.22;;
72369;SDS011;60343;-32.030;115.880;2022-10-24T04:01:56;2.63;;;0.40;;
72369;SDS011;60343;-32.030;115.880;2022-10-24T04:04:31;2.33;;;0.32;;
72369;SDS011;60343;-32.030;115.880;2022-10-24T04:09:34;4.28;;;0.40;;
72369;SDS011;60343;-32.030;115.880;2022-10-24T04:12:01;4.25;;;0.52;;
72369;SDS011;60343;-32.030;115.880;2022-10-24T04:14:29;4.75;;;0.52;;
72369;SDS011;60343;-32.030;115.880;2022-10-24T04:16:57;3.17;;;0.40;;
72369;SDS011;60343;-32.030;115.880;2022-10-24T04:19:25;3.38;;;0.50;;
72369;SDS011;60343;-32.030;115.880;2022-10-24T04:21:52;5.00;;;0.57;;
72369;SDS011;60343;-32.030;115.880;2022-10-24T04:24:25;6.30;;;0.75;;
72369;SDS011;60343;-32.030;115.880;2022-10-24T04:26:56;5.88;;;0.55;;
72369;SDS011;60343;-32.030;115.880;2022-10-24T04:29:23;4.47;;;0.57;;
72369;SDS011;60343;-32.030;115.880;2022-10-24T04:31:51;6.03;;;0.60;;
72369;SDS011;60343;-32.030;115.880;2022-10-24T04:34:19;3.75;;;0.57;;
72369;SDS011;60343;-32.030;115.880;2022-10-24T04:36:48;3.25;;;0.40;;
72369;SDS011;60343;-32.030;115.880;2022-10-24T04:39:16;4.10;;;0.80;;
72369;SDS011;60343;-32.030;115.880;2022-10-24T04:41:49;4.70;;;0.60;;
72369;SDS011;60343;-32.030;115.880;2022-10-24T04:44:17;5.20;;;0.80;;
72369;SDS011;60343;-32.030;115.880;2022-10-24T04:46:44;5.72;;;0.60;;
72369;SDS011;60343;-32.030;115.880;2022-10-24T04:49:12;5.40;;;0.80;;
72369;SDS011;60343;-32.030;115.880;2022-10-24T04:51:40;7.90;;;0.60;;
72369;SDS011;60343;-32.030;115.880;2022-10-24T04:54:07;6.68;;;0.50;;
72369;SDS011;60343;-32.030;115.880;2022-10-24T04:56:35;5.20;;;0.90;;
72369;SDS011;60343;-32.030;115.880;2022-10-24T04:59:08;4.55;;;0.80;;
72369;SDS011;60343;-32.030;115.880;2022-10-24T05:01:36;7.95;;;0.68;;
72369;SDS011;60343;-32.030;115.880;2022-10-24T05:04:04;4.28;;;0.50;;
72369;SDS011;60343;-32.030;115.880;2022-10-24T05:06:31;3.55;;;0.40;;
72369;SDS011;60343;-32.030;115.880;2022-10-24T05:08:59;4.85;;;0.60;;
72369;SDS011;60343;-32.030;115.880;2022-10-24T05:11:27;6.00;;;0.60;;
72369;SDS011;60343;-32.030;115.880;2022-10-24T05:13:55;6.15;;;0.70;;
72369;SDS011;60343;-32.030;115.880;2022-10-24T05:16:28;8.18;;;0.90;;
72369;SDS011;60343;-32.030;115.880;2022-10-24T05:18:55;3.95;;;0.60;;
72369;SDS011;60343;-32.030;115.880;2022-10-24T05:21:23;6.07;;;0.85;;
72369;SDS011;60343;-32.030;115.880;2022-10-24T05:23:51;6.65;;;0.70;;
72369;SDS011;60343;-32.030;115.880;2022-10-24T05:26:19;6.20;;;0.82;;
72369;SDS011;60343;-32.030;115.880;2022-10-24T05:28:46;6.90;;;0.80;;
72369;SDS011;60343;-32.030;115.880;2022-10-24T05:31:14;5.93;;;0.95;;
72369;SDS011;60343;-32.030;115.880;2022-10-24T05:33:47;6.80;;;1.05;;
72369;SDS011;60343;-32.030;115.880;2022-10-24T05:36:15;3.85;;;0.75;;
72369;SDS011;60343;-32.030;115.880;2022-10-24T05:38:43;6.90;;;0.70;;
72369;SDS011;60343;-32.030;115.880;2022-10-24T05:41:10;6.25;;;0.88;;
72369;SDS011;60343;-32.030;115.880;2022-10-24T05:43:38;5.22;;;0.70;;
72369;SDS011;60343;-32.030;115.880;2022-10-24T05:46:06;3.85;;;0.55;;
72369;SDS011;60343;-32.030;115.880;2022-10-24T05:48:33;2.30;;;0.28;;
72369;SDS011;60343;-32.030;115.880;2022-10-24T05:51:07;4.47;;;0.50;;
72369;SDS011;60343;-32.030;115.880;2022-10-24T05:53:37;2.97;;;0.20;;
72369;SDS011;60343;-32.030;115.880;2022-10-24T05:56:05;2.65;;;0.15;;
72369;SDS011;60343;-32.030;115.880;2022-10-24T05:58:33;4.57;;;0.30;;
72369;SDS011;60343;-32.030;115.880;2022-10-24T06:01:01;3.70;;;0.40;;
72369;SDS011;60343;-32.030;115.880;2022-10-24T06:03:28;1.98;;;0.30;;
72369;SDS011;60343;-32.030;115.880;2022-10-24T06:05:56;3.03;;;0.25;;
72369;SDS011;60343;-32.030;115.880;2022-10-24T06:08:33;5.63;;;0.55;;
72369;SDS011;60343;-32.030;115.880;2022-10-24T06:11:02;4.65;;;0.45;;
72369;SDS011;60343;-32.030;115.880;2022-10-24T06:13:33;5.80;;;0.80;;
72369;SDS011;60343;-32.030;115.880;2022-10-24T06:16:01;5.32;;;0.40;;
72369;SDS011;60343;-32.030;115.880;2022-10-24T06:18:30;2.42;;;0.40;;
72369;SDS011;60343;-32.030;115.880;2022-10-24T06:20:58;3.17;;;0.38;;
72369;SDS011;60343;-32.030;115.880;2022-10-24T06:23:26;6.07;;;0.50;;
72369;SDS011;60343;-32.030;115.880;2022-10-24T06:26:00;6.05;;;0.60;;
72369;SDS011;60343;-32.030;115.880;2022-10-24T06:28:27;4.25;;;0.50;;
72369;SDS011;60343;-32.030;115.880;2022-10-24T06:30:55;5.55;;;0.55;;
72369;SDS011;60343;-32.030;115.880;2022-10-24T06:33:22;8.13;;;0.77;;
72369;SDS011;60343;-32.030;115.880;2022-10-24T06:35:50;1.67;;;0.32;;
72369;SDS011;60343;-32.030;115.880;2022-10-24T06:38:17;3.08;;;0.40;;
72369;SDS011;60343;-32.030;115.880;2022-10-24T06:40:51;3.00;;;0.50;;
72369;SDS011;60343;-32.030;115.880;2022-10-24T06:43:19;5.25;;;0.50;;
72369;SDS011;60343;-32.030;115.880;2022-10-24T06:45:47;3.42;;;0.28;;
72369;SDS011;60343;-32.030;115.880;2022-10-24T06:48:14;3.35;;;0.40;;
72369;SDS011;60343;-32.030;115.880;2022-10-24T06:50:42;2.50;;;0.28;;
72369;SDS011;60343;-32.030;115.880;2022-10-24T06:53:10;2.95;;;0.50;;
72369;SDS011;60343;-32.030;115.880;2022-10-24T06:55:37;2.95;;;0.30;;
72369;SDS011;60343;-32.030;115.880;2022-10-24T06:58:11;2.47;;;0.38;;
72369;SDS011;60343;-32.030;115.880;2022-10-24T07:00:38;3.95;;;0.40;;
72369;SDS011;60343;-32.030;115.880;2022-10-24T07:03:06;6.38;;;0.70;;
72369;SDS011;60343;-32.030;115.880;2022-10-24T07:05:38;4.93;;;0.30;;
72369;SDS011;60343;-32.030;115.880;2022-10-24T07:08:06;2.20;;;0.40;;
72369;SDS011;60343;-32.030;115.880;2022-10-24T07:10:34;9.82;;;0.80;;
72369;SDS011;60343;-32.030;115.880;2022-10-24T07:13:02;4.32;;;0.40;;
72369;SDS011;60343;-32.030;115.880;2022-10-24T07:15:35;6.65;;;0.45;;
72369;SDS011;60343;-32.030;115.880;2022-10-24T07:18:02;6.00;;;0.60;;
72369;SDS011;60343;-32.030;115.880;2022-10-24T07:20:30;8.00;;;0.68;;
72369;SDS011;60343;-32.030;115.880;2022-10-24T07:22:58;3.63;;;0.52;;
72369;SDS011;60343;-32.030;115.880;2022-10-24T07:25:26;4.38;;;0.60;;
72369;SDS011;60343;-32.030;115.880;2022-10-24T07:27:53;5.68;;;0.40;;
72369;SDS011;60343;-32.030;115.880;2022-10-24T07:30:21;3.20;;;0.40;;
72369;SDS011;60343;-32.030;115.880;2022-10-24T07:32:54;4.10;;;0.40;;
72369;SDS011;60343;-32.030;115.880;2022-10-24T07:35:22;4.97;;;0.60;;
72369;SDS011;60343;-32.030;115.880;2022-10-24T07:37:50;3.80;;;0.60;;
72369;SDS011;60343;-32.030;115.880;2022-10-24T07:40:17;5.20;;;0.60;;
72369;SDS011;60343;-32.030;115.880;2022-10-24T07:42:45;6.90;;;0.60;;
72369;SDS011;60343;-32.030;115.880;2022-10-24T07:45:13;8.93;;;0.90;;
72369;SDS011;60343;-32.030;115.880;2022-10-24T07:47:41;5.10;;;0.40;;
72369;SDS011;60343;-32.030;115.880;2022-10-24T07:50:14;6.93;;;0.50;;
72369;SDS011;60343;-32.030;115.880;2022-10-24T07:52:42;6.10;;;0.60;;
72369;SDS011;60343;-32.030;115.880;2022-10-24T07:55:10;5.05;;;0.60;;
72369;SDS011;60343;-32.030;115.880;2022-10-24T07:57:37;8.00;;;0.70;;
72369;SDS011;60343;-32.030;115.880;2022-10-24T08:00:05;7.30;;;0.80;;
72369;SDS011;60343;-32.030;115.880;2022-10-24T08:02:34;5.78;;;1.15;;
72369;SDS011;60343;-32.030;115.880;2022-10-24T08:05:02;9.68;;;0.70;;
72369;SDS011;60343;-32.030;115.880;2022-10-24T08:07:35;5.78;;;0.77;;
72369;SDS011;60343;-32.030;115.880;2022-10-24T08:10:03;3.40;;;0.43;;
72369;SDS011;60343;-32.030;115.880;2022-10-24T08:12:32;9.43;;;0.60;;
72369;SDS011;60343;-32.030;115.880;2022-10-24T08:15:00;8.90;;;0.82;;
72369;SDS011;60343;-32.030;115.880;2022-10-24T08:17:28;3.30;;;0.47;;
72369;SDS011;60343;-32.030;115.880;2022-10-24T08:19:55;9.40;;;1.13;;
72369;SDS011;60343;-32.030;115.880;2022-10-24T08:22:23;6.32;;;0.77;;
72369;SDS011;60343;-32.030;115.880;2022-10-24T08:24:56;9.20;;;1.10;;
72369;SDS011;60343;-32.030;115.880;2022-10-24T08:27:24;7.22;;;0.88;;
72369;SDS011;60343;-32.030;115.880;2022-10-24T08:29:52;6.15;;;0.70;;
72369;SDS011;60343;-32.030;115.880;2022-10-24T08:32:20;7.97;;;0.60;;
72369;SDS011;60343;-32.030;115.880;2022-10-24T08:34:47;7.78;;;0.85;;
72369;SDS011;60343;-32.030;115.880;2022-10-24T08:37:15;7.03;;;1.08;;
72369;SDS011;60343;-32.030;115.880;2022-10-24T08:39:42;6.15;;;0.60;;
72369;SDS011;60343;-32.030;115.880;2022-10-24T08:42:16;5.20;;;0.40;;
72369;SDS011;60343;-32.030;115.880;2022-10-24T08:44:44;6.57;;;0.70;;
72369;SDS011;60343;-32.030;115.880;2022-10-24T08:47:14;3.20;;;0.63;;
72369;SDS011;60343;-32.030;115.880;2022-10-24T08:49:51;7.88;;;0.82;;
72369;SDS011;60343;-32.030;115.880;2022-10-24T08:52:26;4.18;;;0.65;;
72369;SDS011;60343;-32.030;115.880;2022-10-24T08:54:57;7.88;;;0.73;;
72369;SDS011;60343;-32.030;115.880;2022-10-24T08:57:36;7.30;;;0.52;;
72369;SDS011;60343;-32.030;115.880;2022-10-24T09:00:11;5.63;;;0.47;;
72369;SDS011;60343;-32.030;115.880;2022-10-24T09:02:42;5.55;;;1.00;;
72369;SDS011;60343;-32.030;115.880;2022-10-24T09:05:19;9.43;;;0.80;;
72369;SDS011;60343;-32.030;115.880;2022-10-24T09:07:50;8.23;;;0.73;;
72369;SDS011;60343;-32.030;115.880;2022-10-24T09:10:21;7.20;;;0.80;;
72369;SDS011;60343;-32.030;115.880;2022-10-24T09:15:33;10.02;;;0.90;;
72369;SDS011;60343;-32.030;115.880;2022-10-24T09:18:01;10.95;;;1.00;;
72369;SDS011;60343;-32.030;115.880;2022-10-24T09:20:30;10.45;;;0.93;;
72369;SDS011;60343;-32.030;115.880;2022-10-24T09:22:59;8.10;;;1.13;;
72369;SDS011;60343;-32.030;115.880;2022-10-24T09:25:30;13.57;;;1.08;;
72369;SDS011;60343;-32.030;115.880;2022-10-24T09:28:06;9.20;;;1.02;;
72369;SDS011;60343;-32.030;115.880;2022-10-24T09:30:35;10.55;;;1.25;;
72369;SDS011;60343;-32.030;115.880;2022-10-24T09:33:06;11.23;;;1.15;;
72369;SDS011;60343;-32.030;115.880;2022-10-24T09:35:40;9.85;;;1.20;;
72369;SDS011;60343;-32.030;115.880;2022-10-24T09:40:54;8.88;;;0.95;;
72369;SDS011;60343;-32.030;115.880;2022-10-24T09:43:32;8.02;;;0.95;;
72369;SDS011;60343;-32.030;115.880;2022-10-24T09:46:05;11.15;;;1.40;;
72369;SDS011;60343;-32.030;115.880;2022-10-24T09:48:39;9.32;;;1.02;;
72369;SDS011;60343;-32.030;115.880;2022-10-24T09:53:56;8.50;;;0.88;;
72369;SDS011;60343;-32.030;115.880;2022-10-24T09:56:32;8.90;;;0.90;;
72369;SDS011;60343;-32.030;115.880;2022-10-24T09:59:25;8.90;;;1.42;;
72369;SDS011;60343;-32.030;115.880;2022-10-24T10:02:07;10.15;;;1.10;;
72369;SDS011;60343;-32.030;115.880;2022-10-24T10:04:42;7.15;;;1.02;;
72369;SDS011;60343;-32.030;115.880;2022-10-24T10:07:10;5.82;;;0.63;;
72369;SDS011;60343;-32.030;115.880;2022-10-24T10:09:45;7.43;;;0.82;;
72369;SDS011;60343;-32.030;115.880;2022-10-24T10:15:15;8.07;;;1.20;;
72369;SDS011;60343;-32.030;115.880;2022-10-24T10:17:48;6.72;;;0.85;;
72369;SDS011;60343;-32.030;115.880;2022-10-24T10:20:23;9.98;;;0.93;;
72369;SDS011;60343;-32.030;115.880;2022-10-24T10:22:53;6.45;;;0.80;;
72369;SDS011;60343;-32.030;115.880;2022-10-24T10:25:27;10.70;;;0.80;;
72369;SDS011;60343;-32.030;115.880;2022-10-24T10:27:56;15.05;;;1.30;;
72369;SDS011;60343;-32.030;115.880;2022-10-24T10:30:30;6.72;;;0.80;;
72369;SDS011;60343;-32.030;115.880;2022-10-24T10:33:02;8.70;;;1.23;;
72369;SDS011;60343;-32.030;115.880;2022-10-24T10:35:41;7.72;;;0.70;;
72369;SDS011;60343;-32.030;115.880;2022-10-24T10:41:27;9.07;;;0.93;;
72369;SDS011;60343;-32.030;115.880;2022-10-24T10:47:16;7.50;;;1.17;;
72369;SDS011;60343;-32.030;115.880;2022-10-24T10:49:55;10.27;;;0.98;;
72369;SDS011;60343;-32.030;115.880;2022-10-24T10:52:24;8.45;;;0.90;;
72369;SDS011;60343;-32.030;115.880;2022-10-24T10:55:03;7.47;;;1.10;;
72369;SDS011;60343;-32.030;115.880;2022-10-24T10:57:43;8.93;;;1.13;;
72369;SDS011;60343;-32.030;115.880;2022-10-24T11:00:19;10.00;;;1.20;;
72369;SDS011;60343;-32.030;115.880;2022-10-24T11:03:04;8.55;;;1.30;;
72369;SDS011;60343;-32.030;115.880;2022-10-24T11:05:56;10.25;;;1.20;;
72369;SDS011;60343;-32.030;115.880;2022-10-24T11:08:36;13.68;;;1.67;;
72369;SDS011;60343;-32.030;115.880;2022-10-24T11:11:20;10.90;;;0.93;;
72369;SDS011;60343;-32.030;115.880;2022-10-24T11:13:53;10.70;;;1.25;;
72369;SDS011;60343;-32.030;115.880;2022-10-24T11:16:28;9.98;;;0.95;;
72369;SDS011;60343;-32.030;115.880;2022-10-24T11:19:04;8.73;;;1.17;;
72369;SDS011;60343;-32.030;115.880;2022-10-24T11:21:36;12.00;;;1.00;;
72369;SDS011;60343;-32.030;115.880;2022-10-24T11:24:09;12.05;;;1.27;;
72369;SDS011;60343;-32.030;115.880;2022-10-24T11:26:41;9.73;;;1.10;;
72369;SDS011;60343;-32.030;115.880;2022-10-24T11:29:14;9.63;;;1.00;;
72369;SDS011;60343;-32.030;115.880;2022-10-24T11:31:47;9.93;;;1.33;;
72369;SDS011;60343;-32.030;115.880;2022-10-24T11:34:24;9.27;;;1.10;;
72369;SDS011;60343;-32.030;115.880;2022-10-24T11:36:57;7.10;;;0.98;;
72369;SDS011;60343;-32.030;115.880;2022-10-24T11:39:31;10.95;;;1.05;;
72369;SDS011;60343;-32.030;115.880;2022-10-24T11:42:04;8.52;;;0.80;;
72369;SDS011;60343;-32.030;115.880;2022-10-24T11:44:43;7.35;;;0.80;;
72369;SDS011;60343;-32.030;115.880;2022-10-24T11:47:27;11.65;;;1.10;;
72369;SDS011;60343;-32.030;115.880;2022-10-24T11:50:18;8.55;;;1.08;;
72369;SDS011;60343;-32.030;115.880;2022-10-24T11:52:51;7.60;;;0.90;;
72369;SDS011;60343;-32.030;115.880;2022-10-24T11:55:22;7.68;;;0.95;;
72369;SDS011;60343;-32.030;115.880;2022-10-24T11:57:53;8.00;;;0.70;;
72369;SDS011;60343;-32.030;115.880;2022-10-24T12:00:23;10.57;;;1.10;;
72369;SDS011;60343;-32.030;115.880;2022-10-24T12:02:58;6.22;;;0.70;;
72369;SDS011;60343;-32.030;115.880;2022-10-24T12:05:55;8.30;;;0.82;;
72369;SDS011;60343;-32.030;115.880;2022-10-24T12:20:15;5.97;;;0.77;;
72369;SDS011;60343;-32.030;115.880;2022-10-24T12:22:53;5.53;;;0.60;;
72369;SDS011;60343;-32.030;115.880;2022-10-24T12:25:26;4.18;;;0.80;;
72369;SDS011;60343;-32.030;115.880;2022-10-24T12:27:56;6.78;;;0.65;;
72369;SDS011;60343;-32.030;115.880;2022-10-24T12:30:26;5.22;;;0.80;;
72369;SDS011;60343;-32.030;115.880;2022-10-24T12:33:06;4.22;;;0.70;;
72369;SDS011;60343;-32.030;115.880;2022-10-24T12:35:47;4.57;;;0.75;;
72369;SDS011;60343;-32.030;115.880;2022-10-24T12:39:00;5.25;;;0.70;;
72369;SDS011;60343;-32.030;115.880;2022-10-24T12:47:16;10.68;;;1.25;;
72369;SDS011;60343;-32.030;115.880;2022-10-24T12:49:58;9.82;;;1.02;;
72369;SDS011;60343;-32.030;115.880;2022-10-24T12:53:03;7.85;;;0.88;;
72369;SDS011;60343;-32.030;115.880;2022-10-24T12:58:55;5.07;;;0.70;;
72369;SDS011;60343;-32.030;115.880;2022-10-24T13:01:25;6.57;;;0.70;;
72369;SDS011;60343;-32.030;115.880;2022-10-24T13:06:59;7.63;;;1.27;;
72369;SDS011;60343;-32.030;115.880;2022-10-24T13:09:44;3.75;;;0.63;;
72369;SDS011;60343;-32.030;115.880;2022-10-24T13:12:30;9.05;;;0.85;;
72369;SDS011;60343;-32.030;115.880;2022-10-24T13:15:27;6.18;;;0.93;;
72369;SDS011;60343;-32.030;115.880;2022-10-24T13:21:12;5.00;;;0.77;;
72369;SDS011;60343;-32.030;115.880;2022-10-24T13:23:42;7.20;;;0.60;;
72369;SDS011;60343;-32.030;115.880;2022-10-24T13:26:26;5.28;;;0.47;;
72369;SDS011;60343;-32.030;115.880;2022-10-24T13:29:09;6.13;;;0.70;;
72369;SDS011;60343;-32.030;115.880;2022-10-24T13:31:42;7.22;;;0.80;;
72369;SDS011;60343;-32.030;115.880;2022-10-24T13:34:30;3.78;;;0.50;;
72369;SDS011;60343;-32.030;115.880;2022-10-24T13:37:05;1.83;;;0.20;;
72369;SDS011;60343;-32.030;115.880;2022-10-24T13:39:40;1.27;;;0.20;;
72369;SDS011;60343;-32.030;115.880;2022-10-24T13:42:21;0.65;;;0.20;;
72369;SDS011;60343;-32.030;115.880;2022-10-24T13:44:57;0.93;;;0.20;;
72369;SDS011;60343;-32.030;115.880;2022-10-24T13:47:43;1.15;;;0.28;;
72369;SDS011;60343;-32.030;115.880;2022-10-24T13:50:16;0.98;;;0.13;;
72369;SDS011;60343;-32.030;115.880;2022-10-24T13:52:47;4.18;;;0.35;;
72369;SDS011;60343;-32.030;115.880;2022-10-24T13:55:19;2.58;;;0.17;;
72369;SDS011;60343;-32.030;115.880;2022-10-24T13:57:50;0.82;;;0.13;;
72369;SDS011;60343;-32.030;115.880;2022-10-24T14:00:27;0.95;;;0.20;;
72369;SDS011;60343;-32.030;115.880;2022-10-24T14:02:58;2.60;;;0.30;;
72369;SDS011;60343;-32.030;115.880;2022-10-24T14:05:32;0.25;;;0.10;;
72369;SDS011;60343;-32.030;115.880;2022-10-24T14:08:03;1.25;;;0.25;;
72369;SDS011;60343;-32.030;115.880;2022-10-24T14:10:33;1.30;;;0.20;;
72369;SDS011;60343;-32.030;115.880;2022-10-24T14:13:02;1.38;;;0.20;;
72369;SDS011;60343;-32.030;115.880;2022-10-24T14:15:35;0.82;;;0.15;;
72369;SDS011;60343;-32.030;115.880;2022-10-24T14:18:04;0.22;;;0.10;;
72369;SDS011;60343;-32.030;115.880;2022-10-24T14:20:39;0.85;;;0.20;;
72369;SDS011;60343;-32.030;115.880;2022-10-24T14:23:20;1.55;;;0.10;;
72369;SDS011;60343;-32.030;115.880;2022-10-24T14:25:52;1.83;;;0.40;;
72369;SDS011;60343;-32.030;115.880;2022-10-24T14:28:22;1.58;;;0.10;;
72369;SDS011;60343;-32.030;115.880;2022-10-24T14:30:58;1.80;;;0.20;;
72369;SDS011;60343;-32.030;115.880;2022-10-24T14:33:27;1.77;;;0.30;;
72369;SDS011;60343;-32.030;115.880;2022-10-24T14:35:56;1.08;;;0.20;;
72369;SDS011;60343;-32.030;115.880;2022-10-24T14:38:27;0.90;;;0.22;;
72369;SDS011;60343;-32.030;115.880;2022-10-24T14:40:55;2.38;;;0.20;;
72369;SDS011;60343;-32.030;115.880;2022-10-24T14:43:24;3.50;;;0.35;;
72369;SDS011;60343;-32.030;115.880;2022-10-24T14:51:54;2.42;;;0.20;;
72369;SDS011;60343;-32.030;115.880;2022-10-24T14:54:24;3.08;;;0.30;;
72369;SDS011;60343;-32.030;115.880;2022-10-24T14:56:56;0.52;;;0.20;;
72369;SDS011;60343;-32.030;115.880;2022-10-24T14:59:26;3.42;;;0.30;;
72369;SDS011;60343;-32.030;115.880;2022-10-24T15:01:58;2.17;;;0.28;;
72369;SDS011;60343;-32.030;115.880;2022-10-24T15:04:37;1.13;;;0.30;;
72369;SDS011;60343;-32.030;115.880;2022-10-24T15:07:12;1.70;;;0.30;;
72369;SDS011;60343;-32.030;115.880;2022-10-24T15:09:55;1.60;;;0.20;;
72369;SDS011;60343;-32.030;115.880;2022-10-24T15:12:30;1.92;;;0.30;;
72369;SDS011;60343;-32.030;115.880;2022-10-24T15:15:17;0.95;;;0.20;;
72369;SDS011;60343;-32.030;115.880;2022-10-24T15:17:46;1.25;;;0.25;;
72369;SDS011;60343;-32.030;115.880;2022-10-24T15:20:20;1.73;;;0.30;;
72369;SDS011;60343;-32.030;115.880;2022-10-24T15:22:49;2.83;;;0.28;;
72369;SDS011;60343;-32.030;115.880;2022-10-24T15:25:21;1.00;;;0.20;;
72369;SDS011;60343;-32.030;115.880;2022-10-24T15:27:51;1.00;;;0.20;;
72369;SDS011;60343;-32.030;115.880;2022-10-24T15:30:19;1.33;;;0.22;;
72369;SDS011;60343;-32.030;115.880;2022-10-24T15:32:48;1.90;;;0.28;;